sensor_id;sensor_type;location;lat;lon;timestamp;pressure;altitude;pressure_sealevel;temperature;humidity
63654;BME280;49809;47.418;19.080;2023-12-20T00:01:21;100724.75;;;-1.93;100.00
63654;BME280;49809;47.418;19.080;2023-12-20T00:04:28;100719.75;;;-1.87;100.00
63654;BME280;49809;47.418;19.080;2023-12-20T00:07:43;100707.87;;;-1.97;100.00
63654;BME280;49809;47.418;19.080;2023-12-20T00:10:47;100713.56;;;-2.02;100.00
63654;BME280;49809;47.418;19.080;2023-12-20T00:13:51;100698.97;;;-1.95;100.00
63654;BME280;49809;47.418;19.080;2023-12-20T00:17:15;100699.78;;;-1.86;100.00
63654;BME280;49809;47.418;19.080;2023-12-20T00:20:21;100694.13;;;-1.82;100.00
63654;BME280;49809;47.418;19.080;2023-12-20T00:23:24;100698.50;;;-1.74;100.00
63654;BME280;49809;47.418;19.080;2023-12-20T00:26:30;100687.47;;;-1.84;100.00
63654;BME280;49809;47.418;19.080;2023-12-20T00:29:34;100691.50;;;-1.98;100.00
63654;BME280;49809;47.418;19.080;2023-12-20T00:32:43;100683.25;;;-2.01;100.00
63654;BME280;49809;47.418;19.080;2023-12-20T00:35:50;100675.47;;;-2.01;100.00
63654;BME280;49809;47.418;19.080;2023-12-20T00:38:55;100671.22;;;-2.10;100.00
63654;BME280;49809;47.418;19.080;2023-12-20T00:42:01;100662.16;;;-2.14;100.00
63654;BME280;49809;47.418;19.080;2023-12-20T00:45:05;100663.44;;;-2.02;100.00
63654;BME280;49809;47.418;19.080;2023-12-20T00:48:08;100658.25;;;-2.10;100.00
63654;BME280;49809;47.418;19.080;2023-12-20T00:51:12;100651.78;;;-2.06;100.00
63654;BME280;49809;47.418;19.080;2023-12-20T00:54:48;100654.19;;;-2.13;100.00
63654;BME280;49809;47.418;19.080;2023-12-20T00:57:52;100644.66;;;-2.04;100.00
63654;BME280;49809;47.418;19.080;2023-12-20T01:00:58;100638.19;;;-2.08;100.00
63654;BME280;49809;47.418;19.080;2023-12-20T01:04:03;100627.47;;;-2.05;100.00
63654;BME280;49809;47.418;19.080;2023-12-20T01:07:06;100626.31;;;-2.03;100.00
63654;BME280;49809;47.418;19.080;2023-12-20T01:10:11;100627.31;;;-1.96;100.00
63654;BME280;49809;47.418;19.080;2023-12-20T01:13:15;100621.62;;;-1.83;100.00
63654;BME280;49809;47.418;19.080;2023-12-20T01:16:19;100614.31;;;-1.88;100.00
63654;BME280;49809;47.418;19.080;2023-12-20T01:19:23;100608.34;;;-2.04;100.00
63654;BME280;49809;47.418;19.080;2023-12-20T01:22:28;100609.47;;;-1.91;100.00
63654;BME280;49809;47.418;19.080;2023-12-20T01:25:32;100597.81;;;-1.95;100.00
63654;BME280;49809;47.418;19.080;2023-12-20T01:28:35;100594.06;;;-2.00;100.00
63654;BME280;49809;47.418;19.080;2023-12-20T01:31:40;100590.66;;;-1.93;100.00
63654;BME280;49809;47.418;19.080;2023-12-20T01:34:50;100590.00;;;-1.87;100.00
63654;BME280;49809;47.418;19.080;2023-12-20T01:37:54;100576.88;;;-1.85;100.00
63654;BME280;49809;47.418;19.080;2023-12-20T01:41:03;100578.81;;;-1.87;100.00
63654;BME280;49809;47.418;19.080;2023-12-20T01:44:33;100576.22;;;-1.87;100.00
63654;BME280;49809;47.418;19.080;2023-12-20T01:47:40;100572.97;;;-1.81;100.00
63654;BME280;49809;47.418;19.080;2023-12-20T01:50:46;100568.75;;;-1.82;100.00
63654;BME280;49809;47.418;19.080;2023-12-20T01:53:51;100556.94;;;-1.85;100.00
63654;BME280;49809;47.418;19.080;2023-12-20T01:57:21;100555.50;;;-1.95;100.00
63654;BME280;49809;47.418;19.080;2023-12-20T02:00:25;100548.84;;;-1.90;100.00
63654;BME280;49809;47.418;19.080;2023-12-20T02:03:34;100540.56;;;-2.01;100.00
63654;BME280;49809;47.418;19.080;2023-12-20T02:07:02;100525.66;;;-1.91;100.00
63654;BME280;49809;47.418;19.080;2023-12-20T02:10:08;100525.00;;;-2.01;100.00
63654;BME280;49809;47.418;19.080;2023-12-20T02:13:18;100518.69;;;-1.99;100.00
63654;BME280;49809;47.418;19.080;2023-12-20T02:16:24;100516.53;;;-1.71;100.00
63654;BME280;49809;47.418;19.080;2023-12-20T02:19:28;100513.16;;;-1.96;100.00
63654;BME280;49809;47.418;19.080;2023-12-20T02:22:31;100514.34;;;-2.14;100.00
63654;BME280;49809;47.418;19.080;2023-12-20T02:25:37;100511.87;;;-2.00;100.00
63654;BME280;49809;47.418;19.080;2023-12-20T02:28:40;100507.81;;;-1.94;100.00
63654;BME280;49809;47.418;19.080;2023-12-20T02:31:43;100500.03;;;-1.94;100.00
63654;BME280;49809;47.418;19.080;2023-12-20T02:34:48;100492.56;;;-1.89;100.00
63654;BME280;49809;47.418;19.080;2023-12-20T02:38:32;100486.00;;;-1.69;100.00
63654;BME280;49809;47.418;19.080;2023-12-20T02:42:10;100483.44;;;-1.77;100.00
63654;BME280;49809;47.418;19.080;2023-12-20T02:45:39;100478.31;;;-2.01;100.00
63654;BME280;49809;47.418;19.080;2023-12-20T02:49:08;100482.03;;;-1.96;100.00
63654;BME280;49809;47.418;19.080;2023-12-20T02:52:42;100471.56;;;-2.18;100.00
63654;BME280;49809;47.418;19.080;2023-12-20T02:56:21;100463.59;;;-2.17;100.00
63654;BME280;49809;47.418;19.080;2023-12-20T02:59:50;100466.84;;;-2.15;100.00
63654;BME280;49809;47.418;19.080;2023-12-20T03:03:12;100451.44;;;-2.16;100.00
63654;BME280;49809;47.418;19.080;2023-12-20T03:06:50;100441.56;;;-2.21;100.00
63654;BME280;49809;47.418;19.080;2023-12-20T03:10:24;100452.38;;;-2.01;100.00
63654;BME280;49809;47.418;19.080;2023-12-20T03:13:58;100451.97;;;-1.74;100.00
63654;BME280;49809;47.418;19.080;2023-12-20T03:17:16;100444.28;;;-2.06;100.00
63654;BME280;49809;47.418;19.080;2023-12-20T03:20:52;100437.78;;;-1.94;100.00
63654;BME280;49809;47.418;19.080;2023-12-20T03:24:27;100449.16;;;-2.03;100.00
63654;BME280;49809;47.418;19.080;2023-12-20T03:27:57;100433.75;;;-2.05;100.00
63654;BME280;49809;47.418;19.080;2023-12-20T03:31:35;100440.25;;;-2.09;100.00
63654;BME280;49809;47.418;19.080;2023-12-20T03:34:59;100439.09;;;-2.06;100.00
63654;BME280;49809;47.418;19.080;2023-12-20T03:38:38;100447.59;;;-2.29;100.00
63654;BME280;49809;47.418;19.080;2023-12-20T03:42:07;100445.44;;;-2.17;100.00
63654;BME280;49809;47.418;19.080;2023-12-20T03:45:36;100452.56;;;-2.11;100.00
63654;BME280;49809;47.418;19.080;2023-12-20T03:49:13;100449.81;;;-2.09;100.00
63654;BME280;49809;47.418;19.080;2023-12-20T03:52:48;100456.63;;;-2.08;100.00
63654;BME280;49809;47.418;19.080;2023-12-20T03:56:24;100449.16;;;-2.03;100.00
63654;BME280;49809;47.418;19.080;2023-12-20T03:59:50;100447.53;;;-2.04;100.00
63654;BME280;49809;47.418;19.080;2023-12-20T04:03:32;100450.13;;;-2.12;100.00
63654;BME280;49809;47.418;19.080;2023-12-20T04:07:02;100435.19;;;-2.02;100.00
63654;BME280;49809;47.418;19.080;2023-12-20T04:10:37;100438.78;;;-2.03;100.00
63654;BME280;49809;47.418;19.080;2023-12-20T04:14:16;100436.81;;;-2.01;100.00
63654;BME280;49809;47.418;19.080;2023-12-20T04:17:51;100423.56;;;-2.14;100.00
63654;BME280;49809;47.418;19.080;2023-12-20T04:21:32;100414.44;;;-2.02;100.00
63654;BME280;49809;47.418;19.080;2023-12-20T04:24:54;100409.91;;;-2.00;100.00
63654;BME280;49809;47.418;19.080;2023-12-20T04:28:29;100406.31;;;-1.91;100.00
63654;BME280;49809;47.418;19.080;2023-12-20T04:32:07;100408.31;;;-2.09;100.00
63654;BME280;49809;47.418;19.080;2023-12-20T04:35:51;100407.00;;;-2.05;100.00
63654;BME280;49809;47.418;19.080;2023-12-20T04:39:16;100391.41;;;-1.89;100.00
63654;BME280;49809;47.418;19.080;2023-12-20T04:42:51;100395.78;;;-1.98;100.00
63654;BME280;49809;47.418;19.080;2023-12-20T04:46:22;100397.41;;;-1.97;100.00
63654;BME280;49809;47.418;19.080;2023-12-20T04:49:55;100393.37;;;-1.99;100.00
63654;BME280;49809;47.418;19.080;2023-12-20T04:53:33;100383.88;;;-2.23;100.00
63654;BME280;49809;47.418;19.080;2023-12-20T04:57:09;100380.25;;;-2.06;100.00
63654;BME280;49809;47.418;19.080;2023-12-20T05:00:46;100367.75;;;-2.02;100.00
63654;BME280;49809;47.418;19.080;2023-12-20T05:04:05;100362.22;;;-1.91;100.00
63654;BME280;49809;47.418;19.080;2023-12-20T05:07:31;100360.62;;;-2.00;100.00
63654;BME280;49809;47.418;19.080;2023-12-20T05:10:59;100350.50;;;-1.87;100.00
63654;BME280;49809;47.418;19.080;2023-12-20T05:14:24;100342.78;;;-1.95;100.00
63654;BME280;49809;47.418;19.080;2023-12-20T05:17:53;100330.66;;;-1.72;100.00
63654;BME280;49809;47.418;19.080;2023-12-20T05:21:18;100323.38;;;-1.77;100.00
63654;BME280;49809;47.418;19.080;2023-12-20T05:24:47;100335.59;;;-1.85;100.00
63654;BME280;49809;47.418;19.080;2023-12-20T05:28:26;100332.25;;;-1.94;100.00
63654;BME280;49809;47.418;19.080;2023-12-20T05:31:59;100330.12;;;-1.67;100.00
63654;BME280;49809;47.418;19.080;2023-12-20T05:35:40;100344.03;;;-1.91;100.00
63654;BME280;49809;47.418;19.080;2023-12-20T05:39:01;100333.03;;;-1.93;100.00
63654;BME280;49809;47.418;19.080;2023-12-20T05:42:32;100341.41;;;-2.14;100.00
63654;BME280;49809;47.418;19.080;2023-12-20T05:46:14;100354.56;;;-2.24;100.00
63654;BME280;49809;47.418;19.080;2023-12-20T05:49:54;100364.25;;;-2.17;100.00
63654;BME280;49809;47.418;19.080;2023-12-20T05:53:29;100366.81;;;-2.09;100.00
63654;BME280;49809;47.418;19.080;2023-12-20T05:56:48;100357.78;;;-2.13;100.00
63654;BME280;49809;47.418;19.080;2023-12-20T06:00:18;100347.00;;;-2.02;100.00
63654;BME280;49809;47.418;19.080;2023-12-20T06:04:00;100347.81;;;-1.94;100.00
63654;BME280;49809;47.418;19.080;2023-12-20T06:07:32;100320.47;;;-2.12;100.00
63654;BME280;49809;47.418;19.080;2023-12-20T06:11:07;100310.63;;;-1.86;100.00
63654;BME280;49809;47.418;19.080;2023-12-20T06:14:45;100312.97;;;-2.07;100.00
63654;BME280;49809;47.418;19.080;2023-12-20T06:18:13;100320.16;;;-2.09;100.00
63654;BME280;49809;47.418;19.080;2023-12-20T06:21:49;100302.63;;;-1.77;100.00
63654;BME280;49809;47.418;19.080;2023-12-20T06:25:33;100301.16;;;-1.79;100.00
63654;BME280;49809;47.418;19.080;2023-12-20T06:28:54;100303.50;;;-1.84;100.00
63654;BME280;49809;47.418;19.080;2023-12-20T06:32:32;100298.31;;;-1.84;100.00
63654;BME280;49809;47.418;19.080;2023-12-20T06:36:14;100303.81;;;-1.87;100.00
63654;BME280;49809;47.418;19.080;2023-12-20T06:39:41;100292.59;;;-2.10;100.00
63654;BME280;49809;47.418;19.080;2023-12-20T06:43:17;100298.53;;;-2.33;100.00
63654;BME280;49809;47.418;19.080;2023-12-20T06:46:52;100308.50;;;-2.69;100.00
63654;BME280;49809;47.418;19.080;2023-12-20T06:50:22;100320.25;;;-2.42;100.00
63654;BME280;49809;47.418;19.080;2023-12-20T06:53:54;100335.03;;;-2.58;100.00
63654;BME280;49809;47.418;19.080;2023-12-20T06:57:30;100336.09;;;-2.37;100.00
63654;BME280;49809;47.418;19.080;2023-12-20T07:01:11;100355.87;;;-2.28;100.00
63654;BME280;49809;47.418;19.080;2023-12-20T07:04:47;100365.56;;;-2.22;100.00
63654;BME280;49809;47.418;19.080;2023-12-20T07:08:14;100364.44;;;-2.27;100.00
63654;BME280;49809;47.418;19.080;2023-12-20T07:12:02;100360.38;;;-2.13;100.00
63654;BME280;49809;47.418;19.080;2023-12-20T07:15:45;100357.84;;;-1.91;100.00
63654;BME280;49809;47.418;19.080;2023-12-20T07:19:21;100356.97;;;-1.83;100.00
63654;BME280;49809;47.418;19.080;2023-12-20T07:22:48;100354.00;;;-1.72;100.00
63654;BME280;49809;47.418;19.080;2023-12-20T07:26:16;100347.69;;;-1.69;100.00
63654;BME280;49809;47.418;19.080;2023-12-20T07:29:48;100351.56;;;-1.73;100.00
63654;BME280;49809;47.418;19.080;2023-12-20T07:33:07;100358.16;;;-1.63;100.00
63654;BME280;49809;47.418;19.080;2023-12-20T07:36:32;100361.31;;;-1.45;100.00
63654;BME280;49809;47.418;19.080;2023-12-20T07:40:09;100356.16;;;-1.53;100.00
63654;BME280;49809;47.418;19.080;2023-12-20T07:43:29;100349.03;;;-1.82;100.00
63654;BME280;49809;47.418;19.080;2023-12-20T07:46:46;100356.91;;;-1.67;100.00
63654;BME280;49809;47.418;19.080;2023-12-20T07:50:24;100351.12;;;-1.54;100.00
63654;BME280;49809;47.418;19.080;2023-12-20T07:54:13;100346.13;;;-1.56;100.00
63654;BME280;49809;47.418;19.080;2023-12-20T07:58:03;100343.88;;;-1.59;100.00
63654;BME280;49809;47.418;19.080;2023-12-20T08:01:28;100342.37;;;-1.53;100.00
63654;BME280;49809;47.418;19.080;2023-12-20T08:05:22;100335.59;;;-1.32;100.00
63654;BME280;49809;47.418;19.080;2023-12-20T08:08:57;100327.31;;;-1.35;100.00
63654;BME280;49809;47.418;19.080;2023-12-20T08:12:35;100331.78;;;-1.44;100.00
63654;BME280;49809;47.418;19.080;2023-12-20T08:15:57;100342.66;;;-1.48;100.00
63654;BME280;49809;47.418;19.080;2023-12-20T08:19:31;100340.44;;;-1.28;100.00
63654;BME280;49809;47.418;19.080;2023-12-20T08:23:06;100336.97;;;-1.44;100.00
63654;BME280;49809;47.418;19.080;2023-12-20T08:26:26;100334.19;;;-1.19;100.00
63654;BME280;49809;47.418;19.080;2023-12-20T08:30:18;100332.41;;;-1.19;100.00
63654;BME280;49809;47.418;19.080;2023-12-20T08:33:57;100340.34;;;-1.20;100.00
63654;BME280;49809;47.418;19.080;2023-12-20T08:37:29;100336.94;;;-1.21;100.00
63654;BME280;49809;47.418;19.080;2023-12-20T08:40:59;100343.25;;;-1.15;100.00
63654;BME280;49809;47.418;19.080;2023-12-20T08:44:38;100336.88;;;-1.50;100.00
63654;BME280;49809;47.418;19.080;2023-12-20T08:48:13;100335.69;;;-1.25;100.00
63654;BME280;49809;47.418;19.080;2023-12-20T08:51:42;100345.31;;;-0.88;100.00
63654;BME280;49809;47.418;19.080;2023-12-20T08:55:10;100337.72;;;-0.60;100.00
63654;BME280;49809;47.418;19.080;2023-12-20T08:58:44;100347.62;;;-1.16;100.00
63654;BME280;49809;47.418;19.080;2023-12-20T09:02:26;100343.47;;;-1.48;100.00
63654;BME280;49809;47.418;19.080;2023-12-20T09:05:58;100338.41;;;-1.18;100.00
63654;BME280;49809;47.418;19.080;2023-12-20T09:09:24;100347.97;;;-0.96;100.00
63654;BME280;49809;47.418;19.080;2023-12-20T09:13:04;100342.56;;;-1.09;100.00
63654;BME280;49809;47.418;19.080;2023-12-20T09:16:36;100334.19;;;-0.82;100.00
63654;BME280;49809;47.418;19.080;2023-12-20T09:19:58;100331.75;;;-0.98;100.00
63654;BME280;49809;47.418;19.080;2023-12-20T09:23:32;100330.81;;;-1.05;100.00
63654;BME280;49809;47.418;19.080;2023-12-20T09:27:07;100327.97;;;-0.73;100.00
63654;BME280;49809;47.418;19.080;2023-12-20T09:30:43;100322.75;;;-0.44;100.00
63654;BME280;49809;47.418;19.080;2023-12-20T09:34:20;100327.22;;;-0.67;100.00
63654;BME280;49809;47.418;19.080;2023-12-20T09:37:48;100320.34;;;-0.60;100.00
63654;BME280;49809;47.418;19.080;2023-12-20T09:41:24;100305.53;;;-0.15;100.00
63654;BME280;49809;47.418;19.080;2023-12-20T09:45:02;100289.81;;;-0.07;100.00
63654;BME280;49809;47.418;19.080;2023-12-20T09:48:31;100280.00;;;-0.26;100.00
63654;BME280;49809;47.418;19.080;2023-12-20T09:52:09;100282.13;;;-0.15;100.00
63654;BME280;49809;47.418;19.080;2023-12-20T09:56:08;100279.09;;;-0.33;100.00
63654;BME280;49809;47.418;19.080;2023-12-20T09:59:35;100273.06;;;-0.19;100.00
63654;BME280;49809;47.418;19.080;2023-12-20T10:03:11;100271.91;;;-0.31;100.00
63654;BME280;49809;47.418;19.080;2023-12-20T10:07:05;100258.09;;;-0.17;100.00
63654;BME280;49809;47.418;19.080;2023-12-20T10:10:40;100270.09;;;-0.16;100.00
63654;BME280;49809;47.418;19.080;2023-12-20T10:14:16;100261.84;;;0.16;100.00
63654;BME280;49809;47.418;19.080;2023-12-20T10:17:52;100251.00;;;0.34;100.00
63654;BME280;49809;47.418;19.080;2023-12-20T10:21:27;100268.81;;;0.30;100.00
63654;BME280;49809;47.418;19.080;2023-12-20T10:24:57;100241.16;;;0.72;100.00
63654;BME280;49809;47.418;19.080;2023-12-20T10:28:35;100247.44;;;0.84;100.00
63654;BME280;49809;47.418;19.080;2023-12-20T10:32:33;100238.47;;;0.93;100.00
63654;BME280;49809;47.418;19.080;2023-12-20T10:36:06;100218.03;;;1.24;100.00
63654;BME280;49809;47.418;19.080;2023-12-20T10:39:44;100223.34;;;0.75;100.00
63654;BME280;49809;47.418;19.080;2023-12-20T10:43:22;100212.66;;;1.33;100.00
63654;BME280;49809;47.418;19.080;2023-12-20T10:46:59;100208.75;;;1.15;100.00
63654;BME280;49809;47.418;19.080;2023-12-20T10:50:33;100199.31;;;1.55;100.00
63654;BME280;49809;47.418;19.080;2023-12-20T10:54:18;100205.25;;;1.02;100.00
63654;BME280;49809;47.418;19.080;2023-12-20T10:57:42;100199.31;;;1.14;100.00
63654;BME280;49809;47.418;19.080;2023-12-20T11:01:18;100208.19;;;1.26;100.00
63654;BME280;49809;47.418;19.080;2023-12-20T11:09:29;100214.44;;;0.21;100.00
63654;BME280;49809;47.418;19.080;2023-12-20T11:12:53;100202.87;;;1.07;100.00
63654;BME280;49809;47.418;19.080;2023-12-20T11:16:48;100186.63;;;1.39;100.00
63654;BME280;49809;47.418;19.080;2023-12-20T11:20:39;100167.28;;;1.20;100.00
63654;BME280;49809;47.418;19.080;2023-12-20T11:24:03;100162.03;;;0.79;100.00
63654;BME280;49809;47.418;19.080;2023-12-20T11:27:42;100159.59;;;1.60;100.00
63654;BME280;49809;47.418;19.080;2023-12-20T11:31:19;100149.41;;;1.78;100.00
63654;BME280;49809;47.418;19.080;2023-12-20T11:34:48;100130.97;;;1.99;100.00
63654;BME280;49809;47.418;19.080;2023-12-20T11:38:25;100121.50;;;1.85;100.00
63654;BME280;49809;47.418;19.080;2023-12-20T11:42:07;100102.22;;;1.80;100.00
63654;BME280;49809;47.418;19.080;2023-12-20T11:45:27;100114.22;;;1.48;100.00
63654;BME280;49809;47.418;19.080;2023-12-20T11:49:10;100112.03;;;1.58;100.00
63654;BME280;49809;47.418;19.080;2023-12-20T11:52:45;100111.22;;;1.57;100.00
63654;BME280;49809;47.418;19.080;2023-12-20T11:56:12;100104.22;;;1.71;100.00
63654;BME280;49809;47.418;19.080;2023-12-20T11:59:42;100106.25;;;1.82;100.00
63654;BME280;49809;47.418;19.080;2023-12-20T12:03:00;100085.78;;;1.99;100.00
63654;BME280;49809;47.418;19.080;2023-12-20T12:06:24;100092.22;;;1.96;100.00
63654;BME280;49809;47.418;19.080;2023-12-20T12:09:51;100101.66;;;2.37;100.00
63654;BME280;49809;47.418;19.080;2023-12-20T12:13:25;100099.62;;;2.39;100.00
63654;BME280;49809;47.418;19.080;2023-12-20T12:21:01;100086.97;;;2.55;100.00
63654;BME280;49809;47.418;19.080;2023-12-20T12:24:47;100085.75;;;2.65;100.00
63654;BME280;49809;47.418;19.080;2023-12-20T12:28:37;100086.72;;;3.28;100.00
63654;BME280;49809;47.418;19.080;2023-12-20T12:32:33;100084.22;;;3.01;100.00
63654;BME280;49809;47.418;19.080;2023-12-20T12:36:13;100088.59;;;3.83;100.00
63654;BME280;49809;47.418;19.080;2023-12-20T12:39:53;100076.00;;;5.03;100.00
63654;BME280;49809;47.418;19.080;2023-12-20T12:43:24;100075.03;;;5.45;100.00
63654;BME280;49809;47.418;19.080;2023-12-20T12:46:59;100068.78;;;5.58;100.00
63654;BME280;49809;47.418;19.080;2023-12-20T12:50:26;100080.00;;;5.65;100.00
63654;BME280;49809;47.418;19.080;2023-12-20T12:53:59;100065.84;;;5.66;99.99
63654;BME280;49809;47.418;19.080;2023-12-20T12:57:36;100075.56;;;5.65;100.00
63654;BME280;49809;47.418;19.080;2023-12-20T13:01:02;100076.12;;;5.67;99.35
63654;BME280;49809;47.418;19.080;2023-12-20T13:04:37;100071.88;;;5.66;99.33
63654;BME280;49809;47.418;19.080;2023-12-20T13:08:17;100076.44;;;5.59;98.58
63654;BME280;49809;47.418;19.080;2023-12-20T13:11:54;100061.03;;;5.63;98.29
63654;BME280;49809;47.418;19.080;2023-12-20T13:15:24;100066.94;;;5.47;98.80
63654;BME280;49809;47.418;19.080;2023-12-20T13:18:51;100069.91;;;5.50;98.76
63654;BME280;49809;47.418;19.080;2023-12-20T13:22:20;100068.72;;;5.35;98.68
63654;BME280;49809;47.418;19.080;2023-12-20T13:25:48;100068.78;;;5.28;98.80
63654;BME280;49809;47.418;19.080;2023-12-20T13:29:25;100057.06;;;5.31;98.32
63654;BME280;49809;47.418;19.080;2023-12-20T13:32:47;100046.63;;;5.24;98.79
63654;BME280;49809;47.418;19.080;2023-12-20T13:36:21;100049.75;;;5.33;98.03
63654;BME280;49809;47.418;19.080;2023-12-20T13:39:46;100047.63;;;5.11;98.86
63654;BME280;49809;47.418;19.080;2023-12-20T13:43:19;100048.00;;;4.97;99.58
63654;BME280;49809;47.418;19.080;2023-12-20T13:47:02;100065.13;;;4.99;99.15
63654;BME280;49809;47.418;19.080;2023-12-20T13:50:34;100054.94;;;4.91;98.91
63654;BME280;49809;47.418;19.080;2023-12-20T13:54:09;100058.41;;;4.85;98.78
63654;BME280;49809;47.418;19.080;2023-12-20T13:57:48;100069.88;;;4.72;99.49
63654;BME280;49809;47.418;19.080;2023-12-20T14:01:26;100052.53;;;4.71;99.69
63654;BME280;49809;47.418;19.080;2023-12-20T14:05:05;100056.16;;;4.70;99.98
63654;BME280;49809;47.418;19.080;2023-12-20T14:08:39;100061.06;;;4.67;99.74
63654;BME280;49809;47.418;19.080;2023-12-20T14:12:15;100070.16;;;4.64;100.00
63654;BME280;49809;47.418;19.080;2023-12-20T14:15:58;100066.09;;;4.68;100.00
63654;BME280;49809;47.418;19.080;2023-12-20T14:19:34;100073.56;;;4.65;100.00
63654;BME280;49809;47.418;19.080;2023-12-20T14:23:11;100074.81;;;4.62;100.00
63654;BME280;49809;47.418;19.080;2023-12-20T14:26:35;100078.09;;;4.58;100.00
63654;BME280;49809;47.418;19.080;2023-12-20T14:30:14;100072.78;;;4.64;100.00
63654;BME280;49809;47.418;19.080;2023-12-20T14:33:40;100082.03;;;4.67;100.00
63654;BME280;49809;47.418;19.080;2023-12-20T14:37:14;100073.81;;;4.63;100.00
63654;BME280;49809;47.418;19.080;2023-12-20T14:40:34;100103.19;;;4.47;100.00
63654;BME280;49809;47.418;19.080;2023-12-20T14:44:02;100101.87;;;4.38;100.00
63654;BME280;49809;47.418;19.080;2023-12-20T14:47:40;100096.78;;;4.43;100.00
63654;BME280;49809;47.418;19.080;2023-12-20T14:51:05;100105.66;;;4.42;100.00
63654;BME280;49809;47.418;19.080;2023-12-20T14:54:25;100085.06;;;4.46;100.00
63654;BME280;49809;47.418;19.080;2023-12-20T14:57:49;100099.91;;;4.52;100.00
63654;BME280;49809;47.418;19.080;2023-12-20T15:01:27;100112.03;;;4.28;100.00
63654;BME280;49809;47.418;19.080;2023-12-20T15:05:06;100120.00;;;4.15;100.00
63654;BME280;49809;47.418;19.080;2023-12-20T15:08:35;100124.22;;;4.16;100.00
63654;BME280;49809;47.418;19.080;2023-12-20T15:12:08;100131.53;;;4.32;100.00
63654;BME280;49809;47.418;19.080;2023-12-20T15:15:38;100129.09;;;4.37;100.00
63654;BME280;49809;47.418;19.080;2023-12-20T15:19:15;100125.81;;;4.17;100.00
63654;BME280;49809;47.418;19.080;2023-12-20T15:22:45;100123.47;;;4.33;100.00
63654;BME280;49809;47.418;19.080;2023-12-20T15:26:23;100131.66;;;4.19;100.00
63654;BME280;49809;47.418;19.080;2023-12-20T15:29:52;100154.47;;;4.12;100.00
63654;BME280;49809;47.418;19.080;2023-12-20T15:33:28;100153.63;;;4.18;100.00
63654;BME280;49809;47.418;19.080;2023-12-20T15:37:06;100161.38;;;4.31;100.00
63654;BME280;49809;47.418;19.080;2023-12-20T15:40:32;100153.44;;;4.44;100.00
63654;BME280;49809;47.418;19.080;2023-12-20T15:44:04;100141.19;;;4.38;100.00
63654;BME280;49809;47.418;19.080;2023-12-20T15:47:39;100148.75;;;4.46;100.00
63654;BME280;49809;47.418;19.080;2023-12-20T15:51:13;100150.84;;;4.37;100.00
63654;BME280;49809;47.418;19.080;2023-12-20T15:54:43;100155.28;;;4.37;100.00
63654;BME280;49809;47.418;19.080;2023-12-20T15:58:21;100163.75;;;4.39;100.00
63654;BME280;49809;47.418;19.080;2023-12-20T16:01:40;100163.41;;;4.29;100.00
63654;BME280;49809;47.418;19.080;2023-12-20T16:05:15;100174.22;;;4.39;100.00
63654;BME280;49809;47.418;19.080;2023-12-20T16:08:43;100170.44;;;4.35;100.00
63654;BME280;49809;47.418;19.080;2023-12-20T16:12:19;100176.84;;;4.39;100.00
63654;BME280;49809;47.418;19.080;2023-12-20T16:15:49;100171.00;;;4.37;100.00
63654;BME280;49809;47.418;19.080;2023-12-20T16:19:28;100179.16;;;4.29;100.00
63654;BME280;49809;47.418;19.080;2023-12-20T16:22:55;100171.56;;;4.21;100.00
63654;BME280;49809;47.418;19.080;2023-12-20T16:26:30;100178.81;;;4.19;100.00
63654;BME280;49809;47.418;19.080;2023-12-20T16:29:59;100177.03;;;4.13;100.00
63654;BME280;49809;47.418;19.080;2023-12-20T16:33:25;100180.09;;;4.10;100.00
63654;BME280;49809;47.418;19.080;2023-12-20T16:37:01;100181.88;;;4.16;100.00
63654;BME280;49809;47.418;19.080;2023-12-20T16:40:25;100193.34;;;4.15;100.00
63654;BME280;49809;47.418;19.080;2023-12-20T16:43:57;100176.81;;;4.14;100.00
63654;BME280;49809;47.418;19.080;2023-12-20T16:47:24;100161.75;;;4.10;100.00
63654;BME280;49809;47.418;19.080;2023-12-20T16:50:58;100189.37;;;4.06;100.00
63654;BME280;49809;47.418;19.080;2023-12-20T16:54:42;100199.72;;;3.94;100.00
63654;BME280;49809;47.418;19.080;2023-12-20T16:58:39;100198.72;;;3.88;100.00
63654;BME280;49809;47.418;19.080;2023-12-20T17:06:25;100197.63;;;3.71;100.00
63654;BME280;49809;47.418;19.080;2023-12-20T17:10:01;100208.16;;;3.58;100.00
63654;BME280;49809;47.418;19.080;2023-12-20T17:13:43;100215.41;;;3.56;100.00
63654;BME280;49809;47.418;19.080;2023-12-20T17:17:14;100222.66;;;3.54;100.00
63654;BME280;49809;47.418;19.080;2023-12-20T17:20:57;100216.66;;;3.47;100.00
63654;BME280;49809;47.418;19.080;2023-12-20T17:24:47;100222.66;;;3.54;100.00
63654;BME280;49809;47.418;19.080;2023-12-20T17:28:12;100225.12;;;3.42;100.00
63654;BME280;49809;47.418;19.080;2023-12-20T17:31:50;100229.31;;;3.50;100.00
63654;BME280;49809;47.418;19.080;2023-12-20T17:35:27;100234.78;;;3.48;100.00
63654;BME280;49809;47.418;19.080;2023-12-20T17:39:02;100243.19;;;3.50;100.00
63654;BME280;49809;47.418;19.080;2023-12-20T17:42:43;100239.59;;;3.45;100.00
63654;BME280;49809;47.418;19.080;2023-12-20T17:46:34;100249.47;;;3.36;100.00
63654;BME280;49809;47.418;19.080;2023-12-20T17:50:04;100258.56;;;3.27;100.00
63654;BME280;49809;47.418;19.080;2023-12-20T17:53:47;100263.00;;;3.33;100.00
63654;BME280;49809;47.418;19.080;2023-12-20T17:56:52;100277.87;;;3.33;100.00
63654;BME280;49809;47.418;19.080;2023-12-20T18:00:28;100276.47;;;3.11;100.00
63654;BME280;49809;47.418;19.080;2023-12-20T18:03:59;100286.16;;;2.84;100.00
63654;BME280;49809;47.418;19.080;2023-12-20T18:07:21;100278.72;;;2.61;100.00